Weather History for Tracy, MN

Change the Weather History Date:

Thursday, May 30, 2013

  Actual Average (KMML) Record (KMML)
Temperature  
Mean Temperature 68 °F -  
Max Temperature 74 °F 73 °F 91 °F (2002)
Min Temperature 61 °F 52 °F 38 °F (1966)
Cooling Degree Days 4    
Growing Degree Days 18 (Base 50)    
Moisture  
Dew Point 61 °F    
Average Humidity 78    
Maximum Humidity 94    
Minimum Humidity 64    
Precipitation  
Precipitation 0.01 in - - ()
Sea Level Pressure  
Sea Level Pressure 29.50 in    
Wind  
Wind Speed 10 mph (South)    
Max Wind Speed 21 mph    
Max Gust Speed 31 mph    
Visibility 10 miles    
Events Rain , Thunderstorm    
Averages and records for this station are not official NWS values.
T = Trace of Precipitation, MM = Missing Value Source: NWS Daily Summary

Daily Weather History Graph

Daily Weather History Graph

Search for Another Location

Airport:

Trip Planner

Search our weather history database for the weather conditions in past years. The results will help you decide how hot, cold, wet, or windy it might be!

Date:

Astronomy

May. 30, 2013 Rise Set
Actual Time 5:42 AM CDT 8:57 PM CDT
Civil Twilight 5:07 AM CDT 9:33 PM CDT
Nautical Twilight 4:21 AM CDT 10:19 PM CDT
Astronomical Twilight 3:25 AM CDT 11:16 PM CDT
Moon 12:51 AM CDT (5/30) 12:01 PM CDT (5/30)
Length of Visible Light 16h 26m
Length of Day
15h 15m
Waning Gibbous, 62% of the Moon is Illuminated
May 30
Waning Gibbous
May 31
Last Quarter
Jun 8
New
Jun 16
First Quarter
Jun 23
Full

Hourly Weather History & Observations

Time (CDT) Temp. Dew Point Humidity Pressure Visibility Wind Dir Wind Speed Gust Speed Precip Events Conditions
12:14 AM 64.0 °F 62.2 °F 94% 29.56 in 10.0 mi SSE 4.6 mph - N/A   Overcast
12:34 AM 64.2 °F 62.4 °F 94% 29.56 in 10.0 mi South 10.4 mph - N/A   Mostly Cloudy
12:54 AM 65.3 °F 63.0 °F 92% 29.55 in 10.0 mi South 13.8 mph 19.6 mph N/A   Scattered Clouds
1:14 AM 65.5 °F 62.8 °F 91% 29.55 in 10.0 mi South 10.4 mph 20.7 mph N/A   Scattered Clouds
1:34 AM 64.9 °F 62.6 °F 92% 29.53 in 10.0 mi SSE 6.9 mph - N/A   Scattered Clouds
1:53 AM 64.4 °F 61.9 °F 92% 29.53 in 10.0 mi SSE 9.2 mph 18.4 mph N/A   Clear
2:13 AM 64.4 °F 60.8 °F 88% 29.52 in 10.0 mi SSE 11.5 mph 16.1 mph N/A   Scattered Clouds
2:33 AM 64.4 °F 61.0 °F 89% 29.51 in 10.0 mi SSE 12.7 mph 18.4 mph N/A   Scattered Clouds
2:53 AM 64.0 °F 60.8 °F 89% 29.50 in 10.0 mi SSE 15.0 mph 23.0 mph N/A   Clear
3:14 AM 63.9 °F 60.8 °F 90% 29.50 in 10.0 mi SSE 11.5 mph 17.3 mph N/A   Clear
3:33 AM 64.0 °F 61.3 °F 91% 29.48 in 10.0 mi SSE 10.4 mph - N/A   Clear
3:53 AM 64.0 °F 61.7 °F 92% 29.48 in 10.0 mi Calm Calm - N/A   Clear
4:13 AM 64.4 °F 61.7 °F 91% 29.49 in 10.0 mi Calm Calm - N/A   Scattered Clouds
4:34 AM 64.9 °F 61.9 °F 90% 29.49 in 10.0 mi Calm Calm - N/A   Overcast
4:53 AM 64.6 °F 61.7 °F 90% 29.49 in 10.0 mi Calm Calm - N/A   Mostly Cloudy
5:14 AM 64.6 °F 61.3 °F 89% 29.49 in 10.0 mi Calm Calm - N/A   Scattered Clouds
5:33 AM 64.4 °F 61.2 °F 89% 29.49 in 10.0 mi Calm Calm - N/A   Mostly Cloudy
5:53 AM 64.4 °F 61.0 °F 89% 29.50 in 10.0 mi Calm Calm - N/A   Overcast
6:14 AM 65.3 °F 60.8 °F 85% 29.51 in 10.0 mi South 10.4 mph 19.6 mph N/A   Overcast
6:34 AM 65.3 °F 61.0 °F 86% 29.51 in 10.0 mi South 8.1 mph - N/A   Overcast
6:54 AM 65.3 °F 60.8 °F 85% 29.51 in 10.0 mi South 13.8 mph 20.7 mph N/A   Overcast
7:13 AM 64.8 °F 60.8 °F 87% 29.52 in 10.0 mi South 5.8 mph 18.4 mph N/A   Overcast
7:33 AM 65.1 °F 60.6 °F 85% 29.51 in 10.0 mi South 16.1 mph 23.0 mph N/A   Overcast
7:53 AM 65.1 °F 59.9 °F 83% 29.50 in 10.0 mi SSW 12.7 mph 23.0 mph N/A   Scattered Clouds
8:13 AM 66.2 °F 60.4 °F 82% 29.51 in 10.0 mi SSW 13.8 mph 23.0 mph N/A   Clear
8:33 AM 66.6 °F 60.4 °F 81% 29.51 in 10.0 mi SSW 19.6 mph 25.3 mph N/A   Scattered Clouds
8:53 AM 67.1 °F 60.3 °F 79% 29.52 in 10.0 mi SSW 16.1 mph 25.3 mph N/A   Scattered Clouds
9:14 AM 68.0 °F 60.3 °F 76% 29.52 in 10.0 mi SSW 16.1 mph 26.5 mph N/A   Clear
9:33 AM 68.9 °F 61.0 °F 76% 29.52 in 10.0 mi SSW 15.0 mph 23.0 mph N/A   Clear
9:53 AM 69.4 °F 59.9 °F 72% 29.53 in 10.0 mi South 12.7 mph 24.2 mph N/A   Clear
10:13 AM 70.2 °F 60.8 °F 72% 29.53 in 10.0 mi South 16.1 mph 24.2 mph N/A   Clear
10:34 AM 70.7 °F 59.4 °F 67% 29.52 in 10.0 mi South 18.4 mph 26.5 mph N/A   Clear
10:53 AM 71.1 °F 61.0 °F 70% 29.52 in 10.0 mi South 17.3 mph 25.3 mph N/A   Clear
11:13 AM 72.5 °F 60.3 °F 65% 29.52 in 10.0 mi South 19.6 mph 24.2 mph N/A   Scattered Clouds
11:34 AM 73.0 °F 61.2 °F 66% 29.52 in 10.0 mi SSE 18.4 mph 24.2 mph N/A   Scattered Clouds
11:54 AM 72.9 °F 60.8 °F 66% 29.52 in 10.0 mi South 19.6 mph 25.3 mph N/A   Scattered Clouds
12:14 PM 72.7 °F 60.6 °F 66% 29.52 in 10.0 mi South 17.3 mph 28.8 mph N/A   Scattered Clouds
12:34 PM 71.6 °F 60.3 °F 67% 29.52 in 10.0 mi South 20.7 mph 31.1 mph N/A   Scattered Clouds
12:54 PM 72.5 °F 60.3 °F 65% 29.52 in 10.0 mi South 18.4 mph 27.6 mph N/A   Clear
1:14 PM 72.3 °F 60.1 °F 65% 29.51 in 10.0 mi South 17.3 mph 25.3 mph N/A   Clear
1:33 PM 70.9 °F 60.3 °F 69% 29.51 in 10.0 mi South 16.1 mph 27.6 mph N/A   Scattered Clouds
1:53 PM 70.2 °F 60.3 °F 71% 29.52 in 10.0 mi South 15.0 mph 27.6 mph N/A   Scattered Clouds
2:13 PM 70.7 °F 60.4 °F 70% 29.51 in 10.0 mi South 18.4 mph 24.2 mph N/A   Mostly Cloudy
2:34 PM 72.7 °F 60.1 °F 64% 29.50 in 10.0 mi South 19.6 mph 26.5 mph N/A   Mostly Cloudy
2:54 PM 72.5 °F 59.9 °F 64% 29.50 in 10.0 mi South 16.1 mph 24.2 mph N/A   Mostly Cloudy
3:14 PM 70.9 °F 59.7 °F 68% 29.50 in 10.0 mi South 20.7 mph 29.9 mph N/A   Overcast
3:34 PM 71.6 °F 59.4 °F 65% 29.50 in 10.0 mi South 18.4 mph 25.3 mph N/A   Mostly Cloudy
3:54 PM 71.1 °F 60.1 °F 68% 29.49 in 10.0 mi South 17.3 mph 26.5 mph N/A   Mostly Cloudy
4:13 PM 69.4 °F 59.7 °F 71% 29.49 in 10.0 mi South 16.1 mph 24.2 mph N/A   Overcast
4:34 PM 71.1 °F 61.0 °F 70% 29.48 in 10.0 mi South 15.0 mph 20.7 mph N/A   Overcast
4:53 PM 71.4 °F 60.4 °F 68% 29.48 in 10.0 mi South 15.0 mph 24.2 mph N/A   Scattered Clouds
5:12 PM 72.9 °F 61.2 °F 67% 29.48 in 10.0 mi South 13.8 mph 21.9 mph N/A   Scattered Clouds
5:33 PM 74.3 °F 61.3 °F 64% 29.48 in 10.0 mi South 9.2 mph 20.7 mph N/A   Scattered Clouds
5:54 PM 72.7 °F 61.0 °F 67% 29.48 in 10.0 mi South 13.8 mph 23.0 mph N/A   Mostly Cloudy
6:13 PM 72.5 °F 60.8 °F 67% 29.47 in 10.0 mi South 13.8 mph 18.4 mph N/A   Mostly Cloudy
6:34 PM 72.0 °F 60.6 °F 67% 29.47 in 10.0 mi South 10.4 mph 19.6 mph N/A Rain Light Rain
6:54 PM 71.8 °F 61.3 °F 70% 29.47 in 10.0 mi South 9.2 mph - N/A Rain Light Rain
7:14 PM 71.6 °F 60.4 °F 68% 29.47 in 10.0 mi South 8.1 mph 16.1 mph N/A   Scattered Clouds
7:33 PM 70.9 °F 60.3 °F 69% 29.47 in 10.0 mi South 10.4 mph - N/A   Clear
7:53 PM 70.2 °F 60.3 °F 71% 29.48 in 10.0 mi South 10.4 mph - N/A   Clear
8:13 PM 69.8 °F 60.8 °F 73% 29.48 in 10.0 mi South 11.5 mph - N/A   Clear
8:34 PM 69.3 °F 60.6 °F 74% 29.48 in 10.0 mi South 4.6 mph 17.3 mph N/A   Clear
8:54 PM 68.5 °F 60.8 °F 76% 29.48 in 10.0 mi South 4.6 mph - N/A Thunderstorm Clear
9:14 PM 68.0 °F 61.9 °F 81% 29.48 in 10.0 mi South 6.9 mph - N/A   Clear
9:33 PM 67.6 °F 62.6 °F 84% 29.48 in 10.0 mi Calm Calm - N/A   Clear
9:53 PM 67.1 °F 62.4 °F 85% 29.48 in 10.0 mi South 10.4 mph 16.1 mph N/A   Clear
10:13 PM 66.4 °F 62.1 °F 86% 29.48 in 10.0 mi Calm Calm - N/A   Clear
10:34 PM 66.2 °F 61.7 °F 85% 29.49 in 10.0 mi South 8.1 mph 16.1 mph N/A   Scattered Clouds
10:54 PM 66.2 °F 61.2 °F 84% 29.49 in 10.0 mi South 6.9 mph - N/A   Mostly Cloudy
11:14 PM 66.7 °F 60.6 °F 81% 29.49 in 10.0 mi South 12.7 mph - N/A   Scattered Clouds
11:34 PM 65.7 °F 53.4 °F 65% 29.50 in 10.0 mi South 19.6 mph 25.3 mph N/A Rain , Thunderstorm Rain
11:53 PM 61.9 °F 53.6 °F 74% 29.50 in 10.0 mi Calm Calm - 0.01 in Rain Light Rain